Time;durP1;ratioP1;P1;durP2;ratioP2;P2;SDS_P1;SDS_P2;PMS_P1;PMS_P2;Temp;Humidity;BMP_temperature;BMP_pressure;BME280_temperature;BME280_humidity;BME280_pressure;Samples;Min_cycle;Max_cycle;Signal;HPM_P1;HPM_P2
2022/04/02 00:00:39;;;;;;;4.80;1.75;;;-0.50;54.40;;;;;;5064618;28;20468;-48
2022/04/02 00:03:06;;;;;;;2.65;1.55;;;-0.60;56.00;;;;;;5047375;28;20056;-50
2022/04/02 00:05:31;;;;;;;3.80;2.10;;;-0.60;55.60;;;;;;5056112;28;20047;-61
2022/04/02 00:07:57;;;;;;;5.82;2.03;;;-0.50;56.60;;;;;;5048110;28;20132;-61
2022/04/02 00:10:22;;;;;;;4.90;2.20;;;-0.60;56.80;;;;;;5058794;28;20052;-61
2022/04/02 00:12:48;;;;;;;3.58;1.63;;;-0.60;57.00;;;;;;5066894;28;20032;-61
2022/04/02 00:15:13;;;;;;;2.10;1.38;;;-0.60;58.90;;;;;;5036389;28;20408;-60
2022/04/02 00:17:39;;;;;;;3.05;1.67;;;-0.80;58.00;;;;;;5065785;28;20360;-61
2022/04/02 00:20:05;;;;;;;3.03;1.77;;;-0.90;58.80;;;;;;5049915;28;20033;-61
2022/04/02 00:22:31;;;;;;;3.85;1.80;;;-0.90;66.10;;;;;;5064500;28;20036;-62
2022/04/02 00:24:57;;;;;;;4.93;2.00;;;-0.80;61.40;;;;;;5057068;28;20033;-61
2022/04/02 00:27:22;;;;;;;3.03;1.70;;;-1.00;61.30;;;;;;5063395;28;20509;-60
2022/04/02 00:29:48;;;;;;;4.95;1.65;;;-1.10;62.30;;;;;;5054929;28;20044;-61
2022/04/02 00:32:14;;;;;;;4.90;2.10;;;-1.10;63.90;;;;;;5065650;28;20046;-61
2022/04/02 00:34:40;;;;;;;4.45;1.45;;;-1.10;65.10;;;;;;5064396;28;20111;-60
2022/04/02 00:37:06;;;;;;;5.75;2.20;;;-1.10;65.40;;;;;;5047170;28;20063;-60
2022/04/02 00:39:31;;;;;;;5.32;1.80;;;-1.20;66.50;;;;;;5045253;28;20059;-61
2022/04/02 00:41:57;;;;;;;3.40;1.90;;;-1.20;67.10;;;;;;5065930;28;20032;-61
2022/04/02 00:44:25;;;;;;;4.68;1.85;;;-1.20;65.80;;;;;;5051355;28;20059;-61
2022/04/02 00:46:51;;;;;;;5.18;1.70;;;-1.20;68.70;;;;;;5066243;28;20052;-61
2022/04/02 00:49:17;;;;;;;4.03;1.80;;;-1.20;71.50;;;;;;5064585;28;20402;-61
2022/04/02 00:51:44;;;;;;;5.75;2.67;;;-1.20;69.50;;;;;;5061600;28;20089;-61
2022/04/02 00:54:16;;;;;;;3.90;1.60;;;-1.20;71.10;;;;;;5064740;28;20047;-60
2022/04/02 00:56:43;;;;;;;3.15;1.60;;;-1.30;69.70;;;;;;5046179;28;20048;-60
2022/04/02 00:59:09;;;;;;;5.25;1.92;;;-1.30;69.50;;;;;;5063886;28;20073;-61
2022/04/02 01:01:37;;;;;;;5.57;1.63;;;-1.30;76.90;;;;;;5046613;28;20056;-61
2022/04/02 01:04:03;;;;;;;6.20;2.40;;;-1.40;69.60;;;;;;5063896;28;20580;-61
2022/04/02 01:06:30;;;;;;;3.33;1.90;;;-1.40;68.50;;;;;;5052595;28;20081;-61
2022/04/02 01:08:57;;;;;;;4.45;2.08;;;-1.30;75.10;;;;;;5053822;28;20473;-61
2022/04/02 01:11:22;;;;;;;3.67;1.60;;;-1.30;74.60;;;;;;5060567;28;20051;-59
2022/04/02 01:13:48;;;;;;;3.95;1.50;;;-1.30;79.30;;;;;;5051868;28;20037;-61
2022/04/02 01:16:14;;;;;;;3.72;1.58;;;-1.40;77.70;;;;;;5049108;28;20111;-62
2022/04/02 01:18:40;;;;;;;3.55;1.80;;;-1.50;74.30;;;;;;5063527;28;20025;-62
2022/04/02 01:21:05;;;;;;;6.93;2.20;;;-1.50;79.90;;;;;;5028506;28;20032;-62
2022/04/02 01:23:32;;;;;;;17.02;2.20;;;-1.60;77.20;;;;;;5063574;28;20487;-62
2022/04/02 01:25:59;;;;;;;4.75;2.25;;;-1.60;76.80;;;;;;5046650;28;20040;-63
2022/04/02 01:28:26;;;;;;;4.93;2.50;;;-1.50;83.20;;;;;;5063512;28;20033;-63
2022/04/02 01:30:52;;;;;;;3.72;2.00;;;-1.40;82.80;;;;;;5054102;28;20049;-63
2022/04/02 01:33:17;;;;;;;3.70;1.75;;;-1.40;81.30;;;;;;5055996;28;20025;-63
2022/04/02 01:35:44;;;;;;;6.35;2.22;;;-1.50;84.50;;;;;;5065291;28;20048;-63
2022/04/02 01:38:09;;;;;;;7.35;2.55;;;-1.50;83.50;;;;;;5044663;28;20040;-63
2022/04/02 01:40:35;;;;;;;7.38;3.15;;;-1.50;84.10;;;;;;5050546;28;20047;-63
2022/04/02 01:43:00;;;;;;;4.43;1.75;;;-1.50;79.20;;;;;;5034015;28;20059;-63
2022/04/02 01:45:26;;;;;;;4.95;2.80;;;-1.40;87.40;;;;;;5045522;28;20057;-63
2022/04/02 01:47:53;;;;;;;4.07;1.77;;;-1.40;84.80;;;;;;5063490;28;20415;-63
2022/04/02 01:50:19;;;;;;;6.57;2.53;;;-1.40;90.90;;;;;;5063766;28;20511;-63
2022/04/02 01:52:45;;;;;;;6.43;2.53;;;-1.40;90.80;;;;;;5048092;28;20055;-63
2022/04/02 01:55:10;;;;;;;6.55;2.17;;;-1.40;86.00;;;;;;5057276;28;20016;-64
2022/04/02 01:57:36;;;;;;;3.05;2.08;;;-1.30;92.00;;;;;;5049823;28;20300;-63
2022/04/02 02:00:04;;;;;;;5.38;3.00;;;-1.40;92.30;;;;;;5069514;28;20067;-63
2022/04/02 02:02:31;;;;;;;4.55;2.20;;;-1.30;92.10;;;;;;5047435;28;20120;-63
2022/04/02 02:04:56;;;;;;;4.25;2.10;;;-1.30;91.90;;;;;;5054292;28;20570;-63
2022/04/02 02:07:22;;;;;;;5.15;2.25;;;-1.30;92.00;;;;;;5067061;28;20119;-62
2022/04/02 02:09:48;;;;;;;4.38;2.05;;;-1.40;93.00;;;;;;5049382;28;20068;-63
2022/04/02 02:12:15;;;;;;;2.78;1.52;;;-1.40;96.30;;;;;;5068449;28;20040;-64
2022/04/02 02:14:40;;;;;;;3.08;1.90;;;-1.40;95.90;;;;;;5048182;28;20029;-63
2022/04/02 02:17:06;;;;;;;5.55;2.70;;;-1.50;92.60;;;;;;5045423;28;20043;-63
2022/04/02 02:19:32;;;;;;;8.23;2.45;;;-1.50;94.00;;;;;;5067480;28;20036;-63
2022/04/02 02:21:57;;;;;;;6.30;2.13;;;-1.50;94.00;;;;;;5061054;28;20040;-63
2022/04/02 02:24:23;;;;;;;4.85;2.53;;;-1.50;96.70;;;;;;5067769;28;20059;-63
2022/04/02 02:26:49;;;;;;;6.28;2.30;;;-1.50;94.20;;;;;;5060592;28;20058;-63
2022/04/02 02:29:15;;;;;;;7.82;2.70;;;-1.50;95.20;;;;;;5049261;28;20543;-63
2022/04/02 02:31:40;;;;;;;4.97;2.25;;;-1.40;99.10;;;;;;5066136;28;20039;-63
2022/04/02 02:36:50;;;;;;;3.50;2.60;;;-1.40;96.50;;;;;;5048419;28;20051;-63
2022/04/02 02:39:15;;;;;;;7.13;2.78;;;-1.30;96.90;;;;;;5070050;28;20111;-63
2022/04/02 02:41:41;;;;;;;4.63;2.38;;;-1.40;95.90;;;;;;5062354;28;20047;-64
2022/04/02 02:44:07;;;;;;;7.40;2.67;;;-1.30;98.10;;;;;;5051696;28;20052;-63
2022/04/02 02:46:33;;;;;;;7.93;2.72;;;-1.30;99.80;;;;;;5057396;28;20047;-63
2022/04/02 02:48:58;;;;;;;4.45;1.75;;;-1.40;98.00;;;;;;5070457;28;20548;-63
2022/04/02 02:51:24;;;;;;;5.10;2.47;;;-1.40;98.00;;;;;;5049413;28;20029;-63
2022/04/02 02:53:49;;;;;;;3.80;1.80;;;-1.30;99.40;;;;;;5070227;28;20055;-63
2022/04/02 02:56:15;;;;;;;6.35;2.17;;;-1.30;99.90;;;;;;5049483;28;20033;-63
2022/04/02 02:58:40;;;;;;;7.15;2.65;;;-1.30;98.90;;;;;;5070309;28;20031;-63
2022/04/02 03:01:06;;;;;;;7.30;2.67;;;-1.10;98.70;;;;;;5049493;28;20082;-63
2022/04/02 03:03:32;;;;;;;4.70;2.75;;;-1.00;99.90;;;;;;5049963;28;20388;-63
2022/04/02 03:05:57;;;;;;;5.90;2.20;;;-0.90;98.50;;;;;;5068167;28;20031;-63
2022/04/02 03:08:23;;;;;;;6.35;2.53;;;-0.90;98.50;;;;;;5052525;28;20023;-63
2022/04/02 03:10:49;;;;;;;12.85;2.67;;;-0.90;98.70;;;;;;5049201;28;20036;-63
2022/04/02 03:13:15;;;;;;;8.48;2.90;;;-0.90;99.10;;;;;;5050598;28;20033;-63
2022/04/02 03:15:40;;;;;;;5.22;2.30;;;-0.90;99.10;;;;;;5057598;28;20330;-64
2022/04/02 03:18:08;;;;;;;4.25;2.20;;;-0.90;99.30;;;;;;5070598;28;20500;-63
2022/04/02 03:20:36;;;;;;;6.82;2.58;;;-0.90;97.40;;;;;;5048764;28;20029;-63
2022/04/02 03:23:02;;;;;;;9.40;2.97;;;-1.00;98.40;;;;;;5050433;28;20071;-63
2022/04/02 03:25:28;;;;;;;10.77;3.13;;;-1.00;99.90;;;;;;5067806;28;20029;-63
2022/04/02 03:27:54;;;;;;;8.38;2.38;;;-1.00;99.90;;;;;;5070331;28;20055;-63
2022/04/02 03:30:21;;;;;;;6.75;2.47;;;-1.00;99.90;;;;;;5048988;28;20028;-63
2022/04/02 03:32:47;;;;;;;7.15;3.10;;;-1.00;99.90;;;;;;5050146;28;20108;-63
2022/04/02 03:35:14;;;;;;;6.32;2.35;;;-1.00;99.90;;;;;;5067524;28;20032;-63
2022/04/02 03:37:41;;;;;;;4.25;2.33;;;-0.90;99.90;;;;;;5070345;28;20028;-63
2022/04/02 03:40:14;;;;;;;5.32;2.10;;;-1.00;99.90;;;;;;5050314;28;20071;-63
2022/04/02 03:42:41;;;;;;;9.02;2.78;;;-1.00;99.90;;;;;;5050106;28;20025;-63
2022/04/02 03:45:09;;;;;;;6.18;2.55;;;-1.00;99.90;;;;;;5047634;28;20524;-63
2022/04/02 03:47:35;;;;;;;5.63;2.08;;;-1.00;99.90;;;;;;5050030;28;20045;-63
2022/04/02 03:50:01;;;;;;;5.35;2.78;;;-1.00;99.90;;;;;;5069280;28;20029;-63
2022/04/02 03:52:27;;;;;;;6.95;2.05;;;-1.10;99.90;;;;;;5068130;28;20040;-63
2022/04/02 03:54:52;;;;;;;6.78;2.90;;;-1.10;99.90;;;;;;5050479;28;20033;-64
2022/04/02 03:57:18;;;;;;;5.38;2.35;;;-1.10;99.90;;;;;;5049211;28;20075;-63
2022/04/02 03:59:44;;;;;;;7.32;2.22;;;-1.10;99.90;;;;;;5069215;28;20142;-63
2022/04/02 04:02:10;;;;;;;5.07;2.38;;;-1.00;99.90;;;;;;5065692;28;20395;-64
2022/04/02 04:04:36;;;;;;;7.00;2.72;;;-1.00;99.90;;;;;;5050008;28;20033;-63
2022/04/02 04:07:03;;;;;;;6.65;2.65;;;-1.00;99.90;;;;;;5051367;28;20040;-64
2022/04/02 04:09:28;;;;;;;6.95;2.47;;;-1.00;99.90;;;;;;5069155;28;20495;-63
2022/04/02 04:11:54;;;;;;;5.35;2.22;;;-1.00;99.90;;;;;;5063347;28;20048;-64
2022/04/02 04:14:22;;;;;;;9.70;2.75;;;-1.00;99.90;;;;;;5050084;28;20377;-64
2022/04/02 04:16:48;;;;;;;6.40;2.70;;;-1.00;99.90;;;;;;5046072;28;20021;-63
2022/04/02 04:19:13;;;;;;;6.03;2.53;;;-1.00;99.90;;;;;;5068873;28;20039;-64
2022/04/02 04:21:39;;;;;;;4.40;2.00;;;-1.00;99.90;;;;;;5061237;28;20456;-63
2022/04/02 04:24:06;;;;;;;6.88;2.45;;;-1.10;99.90;;;;;;5050007;28;20036;-63
2022/04/02 04:26:31;;;;;;;11.50;2.38;;;-1.10;99.90;;;;;;5055211;28;20033;-63
2022/04/02 04:28:57;;;;;;;4.13;1.90;;;-1.10;99.90;;;;;;5068911;28;20052;-63
2022/04/02 04:31:23;;;;;;;8.30;3.08;;;-1.10;99.90;;;;;;5047880;28;20137;-64
2022/04/02 04:33:49;;;;;;;6.00;2.00;;;-1.10;99.90;;;;;;5068663;28;20124;-64
2022/04/02 04:36:16;;;;;;;4.70;2.30;;;-1.10;99.90;;;;;;5047789;28;20127;-64
2022/04/02 04:38:42;;;;;;;2.83;2.00;;;-1.10;99.90;;;;;;5068844;28;20454;-64
2022/04/02 04:41:08;;;;;;;5.20;2.45;;;-1.10;99.90;;;;;;5047881;28;20037;-64
2022/04/02 04:43:35;;;;;;;7.35;2.50;;;-1.00;99.90;;;;;;5066163;28;20411;-63
2022/04/02 04:46:02;;;;;;;7.20;2.50;;;-0.90;99.90;;;;;;5061300;28;20063;-63
2022/04/02 04:48:27;;;;;;;5.70;2.05;;;-0.90;99.90;;;;;;5049998;28;20095;-63
2022/04/02 04:50:53;;;;;;;4.68;2.08;;;-0.80;99.90;;;;;;5054805;28;20040;-64
2022/04/02 04:53:18;;;;;;;7.28;2.35;;;-0.80;99.90;;;;;;5060116;28;20049;-64
2022/04/02 04:55:44;;;;;;;4.28;2.45;;;-0.70;99.90;;;;;;5055075;28;20060;-64
2022/04/02 04:58:09;;;;;;;3.03;2.20;;;-0.60;99.90;;;;;;5056635;28;20036;-64
2022/04/02 05:00:35;;;;;;;9.73;2.50;;;-0.50;99.90;;;;;;5051313;28;20040;-63
2022/04/02 05:03:00;;;;;;;5.57;2.95;;;-0.40;99.90;;;;;;5063631;28;20462;-63
2022/04/02 05:05:31;;;;;;;12.05;2.55;;;-0.30;99.90;;;;;;5051773;28;20040;-64
2022/04/02 05:07:57;;;;;;;6.20;2.70;;;-0.20;99.90;;;;;;5053551;28;20016;-63
2022/04/02 05:10:23;;;;;;;7.97;3.03;;;-0.10;99.90;;;;;;5057870;28;20135;-64
2022/04/02 05:12:48;;;;;;;6.00;2.95;;;0.10;99.00;;;;;;5066412;28;20148;-64
2022/04/02 05:15:14;;;;;;;5.13;2.53;;;0.20;99.60;;;;;;5052785;28;20068;-60
2022/04/02 05:17:40;;;;;;;8.20;2.67;;;0.40;97.80;;;;;;5066557;28;20029;-63
2022/04/02 05:20:07;;;;;;;6.10;3.05;;;0.50;96.70;;;;;;5048185;28;20056;-64
2022/04/02 05:22:33;;;;;;;7.30;2.53;;;0.70;95.00;;;;;;5064497;28;20036;-63
2022/04/02 05:24:59;;;;;;;5.03;2.30;;;0.80;94.00;;;;;;5048904;28;20025;-58
2022/04/02 05:27:24;;;;;;;5.28;2.83;;;1.00;92.50;;;;;;5059757;28;20028;-61
2022/04/02 05:29:51;;;;;;;3.55;2.10;;;1.20;91.50;;;;;;5056503;28;20062;-60
2022/04/02 05:32:16;;;;;;;6.63;2.20;;;1.60;89.50;;;;;;5062434;28;20115;-59
2022/04/02 05:34:41;;;;;;;6.85;1.73;;;1.90;83.80;;;;;;5041179;28;20108;-60
2022/04/02 05:37:08;;;;;;;7.55;2.45;;;2.00;81.20;;;;;;5070205;28;20041;-60
2022/04/02 05:39:33;;;;;;;7.68;2.65;;;2.20;78.00;;;;;;5064497;28;20534;-60
2022/04/02 05:41:59;;;;;;;6.63;2.40;;;2.60;74.50;;;;;;5060847;28;20147;-61
2022/04/02 05:44:24;;;;;;;4.25;1.88;;;3.30;67.90;;;;;;5049115;28;20120;-61
2022/04/02 05:46:50;;;;;;;3.90;2.28;;;3.70;62.20;;;;;;5066324;28;20048;-61
2022/04/02 05:49:16;;;;;;;3.78;2.22;;;4.00;61.10;;;;;;5061610;28;20041;-61
2022/04/02 05:51:42;;;;;;;4.88;1.90;;;4.40;55.90;;;;;;5060837;28;20043;-61
2022/04/02 05:54:08;;;;;;;7.63;1.90;;;4.90;52.60;;;;;;5053403;28;20032;-61
2022/04/02 05:56:34;;;;;;;5.57;2.50;;;5.20;49.20;;;;;;5060992;28;20867;-61
2022/04/02 05:59:01;;;;;;;5.90;2.00;;;5.70;47.10;;;;;;5058016;28;20028;-61
2022/04/02 06:01:27;;;;;;;3.70;1.85;;;6.20;45.30;;;;;;5058023;28;20126;-60
2022/04/02 06:03:52;;;;;;;6.35;1.88;;;6.50;40.40;;;;;;5065497;28;20028;-61
2022/04/02 06:06:18;;;;;;;4.53;1.83;;;6.60;38.80;;;;;;5065113;28;20115;-57
2022/04/02 06:08:44;;;;;;;10.20;2.60;;;6.80;38.90;;;;;;5061273;28;20111;-55
2022/04/02 06:11:09;;;;;;;6.28;2.05;;;7.00;37.30;;;;;;5059217;28;20063;-58
2022/04/02 06:13:35;;;;;;;4.32;2.00;;;7.40;35.90;;;;;;5062139;28;20021;-56
2022/04/02 06:16:40;;;;;;;4.15;1.88;;;8.20;34.40;;;;;;5053531;28;20796;-58
2022/04/02 06:20:06;;;;;;;6.05;1.85;;;9.00;28.80;;;;;;5061696;28;20146;-57
2022/04/02 06:23:31;;;;;;;5.15;2.30;;;10.10;25.30;;;;;;5062162;28;20037;-52
2022/04/02 06:26:56;;;;;;;3.95;1.85;;;11.00;22.80;;;;;;5062413;28;20494;-54
2022/04/02 06:30:22;;;;;;;2.75;1.60;;;11.90;20.00;;;;;;5061548;28;20086;-54
2022/04/02 06:33:47;;;;;;;3.70;1.80;;;13.00;20.30;;;;;;5064817;28;20162;-56
2022/04/02 06:37:12;;;;;;;5.60;2.03;;;14.20;14.50;;;;;;5063824;28;20044;-55
2022/04/02 06:40:38;;;;;;;3.03;1.80;;;14.30;12.50;;;;;;5058372;28;20135;-55
2022/04/02 06:44:03;;;;;;;2.45;1.70;;;15.30;12.90;;;;;;5066017;28;20081;-55
2022/04/02 06:47:29;;;;;;;2.47;1.83;;;15.10;9.10;;;;;;5060478;28;20140;-51
2022/04/02 06:50:54;;;;;;;1.73;1.30;;;15.80;8.90;;;;;;5055072;28;20049;-52
2022/04/02 06:54:19;;;;;;;3.50;1.60;;;15.80;9.30;;;;;;5059585;28;20063;-53
2022/04/02 06:57:45;;;;;;;6.47;2.17;;;15.90;7.30;;;;;;5046306;28;20041;-54
2022/04/02 07:01:10;;;;;;;4.65;1.58;;;16.70;7.70;;;;;;5058249;28;20535;-54
2022/04/02 07:04:35;;;;;;;4.75;1.63;;;13.70;7.50;;;;;;5059757;28;20041;-52
2022/04/02 07:08:01;;;;;;;5.20;2.17;;;14.30;8.70;;;;;;5052348;28;20036;-56
2022/04/02 07:11:26;;;;;;;2.38;1.33;;;13.60;9.40;;;;;;5068556;28;20522;-54
2022/04/02 07:14:51;;;;;;;5.05;1.52;;;15.20;9.10;;;;;;5055927;28;20517;-54
2022/04/02 07:18:17;;;;;;;3.50;1.23;;;17.00;8.40;;;;;;5056180;28;20028;-54
2022/04/02 07:21:42;;;;;;;7.55;1.90;;;16.70;6.90;;;;;;5063184;28;20036;-49
2022/04/02 07:25:07;;;;;;;3.05;1.33;;;14.70;6.40;;;;;;5063258;28;20173;-56
2022/04/02 07:28:33;;;;;;;2.15;1.40;;;14.60;6.40;;;;;;5064398;28;20040;-55
2022/04/02 07:31:58;;;;;;;2.55;1.30;;;12.80;5.90;;;;;;5049850;28;20544;-52
2022/04/02 07:35:24;;;;;;;2.00;1.48;;;13.10;6.60;;;;;;5066368;28;20036;-55
2022/04/02 07:39:11;;;;;;;2.60;1.55;;;12.10;8.00;;;;;;5051851;28;20045;-53
2022/04/02 07:42:41;;;;;;;8.95;1.60;;;12.50;8.00;;;;;;5048538;28;20036;-56
2022/04/02 07:46:06;;;;;;;2.67;1.65;;;13.20;6.70;;;;;;5066120;28;20550;-53
2022/04/02 07:49:33;;;;;;;8.40;2.00;;;12.00;7.80;;;;;;5049738;28;20036;-53
2022/04/02 07:52:57;;;;;;;4.13;1.25;;;11.30;8.90;;;;;;5067602;28;20128;-55
2022/04/02 07:56:22;;;;;;;4.43;1.90;;;10.20;9.70;;;;;;5064796;28;20044;-53
2022/04/02 07:59:51;;;;;;;2.92;1.65;;;11.50;7.90;;;;;;5067951;28;20499;-56
2022/04/02 08:03:16;;;;;;;2.85;1.60;;;11.50;8.70;;;;;;5064458;28;20041;-51
2022/04/02 08:06:43;;;;;;;5.30;1.90;;;11.00;8.00;;;;;;5053975;28;20522;-54
2022/04/02 08:10:07;;;;;;;3.40;1.65;;;11.20;8.50;;;;;;5063653;28;20033;-55
2022/04/02 08:13:35;;;;;;;3.17;1.50;;;9.40;9.20;;;;;;5063703;28;20048;-53
2022/04/02 08:17:00;;;;;;;3.65;2.15;;;9.80;10.90;;;;;;5041754;28;20063;-54
2022/04/02 08:20:26;;;;;;;3.55;1.92;;;11.60;8.80;;;;;;5064440;28;20218;-55
2022/04/02 08:23:51;;;;;;;4.22;2.05;;;11.10;9.40;;;;;;5054826;28;20486;-53
2022/04/02 08:27:20;;;;;;;4.25;1.55;;;11.90;9.30;;;;;;5047310;28;20036;-56
2022/04/02 08:30:28;;;;;;;;;;;12.00;8.70;;;;;;5065788;28;20033;-56
2022/04/02 08:33:32;;;;;;;6.30;2.47;;;10.70;9.50;;;;;;5054811;28;20030;-57
2022/04/02 08:37:13;;;;;;;5.82;1.80;;;10.60;10.70;;;;;;5047463;28;20109;-57
2022/04/02 08:40:40;;;;;;;3.65;2.22;;;10.30;10.70;;;;;;5049288;28;20396;-57
2022/04/02 08:44:04;;;;;;;2.30;1.63;;;10.00;11.70;;;;;;5057495;28;20036;-56
2022/04/02 08:47:14;;;;;;;3.92;1.63;;;10.80;10.80;;;;;;5047056;28;20056;-57
2022/04/02 08:50:31;;;;;;;2.90;1.60;;;10.90;9.80;;;;;;5061362;28;20380;-57
2022/04/02 08:54:12;;;;;;;3.58;1.48;;;11.40;10.00;;;;;;5050474;28;20041;-54
2022/04/02 08:57:37;;;;;;;3.50;1.40;;;11.90;7.40;;;;;;5047233;28;20041;-53
2022/04/02 09:01:03;;;;;;;5.13;1.92;;;12.60;8.00;;;;;;5045697;28;20497;-55
2022/04/02 09:04:00;;;;;;;2.40;1.70;;;13.00;6.00;;;;;;5060667;28;20047;-57
2022/04/02 09:07:09;;;;;;;3.05;1.50;;;13.40;6.50;;;;;;5063880;28;20025;-54
2022/04/02 09:10:58;;;;;;;3.83;1.70;;;12.70;4.30;;;;;;5057140;28;20033;-57
2022/04/02 09:14:48;;;;;;;3.17;1.35;;;11.50;3.40;;;;;;5050477;28;20033;-54
2022/04/02 09:18:15;;;;;;;3.28;1.63;;;11.50;3.20;;;;;;5059741;28;20032;-57
2022/04/02 09:21:50;;;;;;;7.57;2.25;;;11.10;4.00;;;;;;5050474;28;20378;-54
2022/04/02 09:25:08;;;;;;;5.63;1.80;;;11.40;4.80;;;;;;5003005;28;20033;-57
2022/04/02 09:28:32;;;;;;;3.92;1.67;;;11.70;4.80;;;;;;5059492;28;20466;-64
2022/04/02 09:32:14;;;;;;;3.05;1.52;;;11.80;4.60;;;;;;5048062;28;20045;-64
2022/04/02 09:35:37;;;;;;;3.40;1.77;;;12.20;5.30;;;;;;5061178;28;20040;-64
2022/04/02 09:38:48;;;;;;;4.70;1.95;;;12.20;4.80;;;;;;5054192;28;20032;-64
2022/04/02 09:41:43;;;;;;;3.05;2.10;;;12.30;3.80;;;;;;5046695;28;20117;-64
2022/04/02 09:45:26;;;;;;;3.15;1.90;;;12.40;4.50;;;;;;5048678;28;20049;-63
2022/04/02 09:48:58;;;;;;;3.60;1.98;;;13.00;4.70;;;;;;5066833;28;20123;-64
2022/04/02 09:52:23;;;;;;;5.82;1.90;;;12.70;4.30;;;;;;5046512;28;20045;-64
2022/04/02 09:55:31;;;;;;;6.88;2.05;;;11.90;5.50;;;;;;5060919;28;20028;-63
2022/04/02 09:58:32;;;;;;;3.40;1.98;;;11.80;5.70;;;;;;5050086;28;20036;-64
2022/04/02 10:01:27;;;;;;;4.03;2.08;;;10.70;6.30;;;;;;5046543;28;20036;-64
2022/04/02 10:05:00;;;;;;;5.88;1.65;;;10.40;6.90;;;;;;5048482;28;20087;-64
2022/04/02 10:08:31;;;;;;;2.45;1.35;;;10.10;7.40;;;;;;5056774;28;20036;-64
2022/04/02 10:11:57;;;;;;;5.50;2.08;;;11.70;6.00;;;;;;5048182;28;20045;-64
2022/04/02 10:15:22;;;;;;;3.28;1.75;;;11.40;5.50;;;;;;5066262;28;20526;-64
2022/04/02 10:18:47;;;;;;;2.40;1.83;;;10.30;7.10;;;;;;5055779;28;20033;-64
2022/04/02 10:22:16;;;;;;;7.38;4.13;;;10.10;7.60;;;;;;5049730;28;20443;-63
2022/04/02 10:25:38;;;;;;;9.02;4.97;;;9.40;8.90;;;;;;5067072;28;20047;-64
2022/04/02 10:29:06;;;;;;;7.55;4.03;;;9.30;9.60;;;;;;5052077;28;20064;-64
2022/04/02 10:32:21;;;;;;;4.53;2.63;;;9.20;9.40;;;;;;5059915;28;20041;-64
2022/04/02 10:35:49;;;;;;;3.17;2.10;;;9.10;9.50;;;;;;5045093;28;20063;-64
2022/04/02 10:39:17;;;;;;;4.22;2.10;;;9.10;9.70;;;;;;5068833;28;20535;-63
2022/04/02 10:42:43;;;;;;;4.78;2.42;;;8.90;9.40;;;;;;5065874;28;20089;-64
2022/04/02 10:46:08;;;;;;;3.00;1.80;;;8.70;9.70;;;;;;5060241;28;20097;-63
2022/04/02 10:49:37;;;;;;;7.38;2.05;;;8.20;10.20;;;;;;5065948;28;20492;-64
2022/04/02 10:52:42;;;;;;;;;;;7.90;10.70;;;;;;5064569;28;20076;-64
2022/04/02 10:56:07;;;;;;;3.47;1.88;;;8.10;11.40;;;;;;5064222;28;19959;-63
2022/04/02 10:59:33;;;;;;;3.55;1.50;;;8.00;11.30;;;;;;5057600;28;20043;-64
2022/04/02 11:03:01;;;;;;;6.05;1.70;;;8.30;10.50;;;;;;5057584;28;20102;-64
2022/04/02 11:06:26;;;;;;;2.92;1.63;;;8.50;11.10;;;;;;5059989;28;20037;-64
2022/04/02 11:10:01;;;;;;;3.40;1.83;;;8.70;11.10;;;;;;5057444;28;20135;-64
2022/04/02 11:13:27;;;;;;;3.83;2.13;;;8.50;11.30;;;;;;5056212;28;20052;-65
2022/04/02 11:17:01;;;;;;;3.17;2.28;;;8.30;11.60;;;;;;5057217;28;20036;-64
2022/04/02 11:20:26;;;;;;;3.40;2.20;;;8.10;12.10;;;;;;5061649;28;20446;-65
2022/04/02 11:24:01;;;;;;;2.55;1.58;;;7.90;12.60;;;;;;5062640;28;20698;-64
2022/04/02 11:27:26;;;;;;;5.38;1.80;;;7.80;12.60;;;;;;5050243;28;20060;-64
2022/04/02 11:30:52;;;;;;;4.57;1.80;;;7.80;12.90;;;;;;5055238;28;20071;-64
2022/04/02 11:34:19;;;;;;;3.35;2.20;;;7.50;13.90;;;;;;5062103;28;20152;-64
2022/04/02 11:37:42;;;;;;;2.80;1.70;;;7.60;14.10;;;;;;5061452;28;20040;-64
2022/04/02 11:41:08;;;;;;;4.57;1.58;;;7.80;14.10;;;;;;5062621;28;20503;-63
2022/04/02 11:44:48;;;;;;;3.58;1.92;;;8.00;13.60;;;;;;5050754;28;20036;-63
2022/04/02 11:48:14;;;;;;;2.97;1.67;;;8.30;13.20;;;;;;5062314;28;20411;-63
2022/04/02 11:51:33;;;;;;;4.93;2.42;;;8.00;13.60;;;;;;5056172;28;20050;-64
2022/04/02 11:54:40;;;;;;;4.82;2.00;;;7.50;15.50;;;;;;5060348;28;20395;-64
2022/04/02 11:58:20;;;;;;;4.35;2.20;;;7.40;16.70;;;;;;5063491;28;20033;-64
2022/04/02 12:01:48;;;;;;;4.07;2.30;;;7.30;18.10;;;;;;5055131;28;20119;-64
2022/04/02 12:05:11;;;;;;;3.45;2.20;;;7.30;18.10;;;;;;5058261;28;20038;-64
2022/04/02 12:07:58;;;;;;;3.15;1.98;;;7.40;17.50;;;;;;5064979;28;20052;-63
2022/04/02 12:10:25;;;;;;;7.60;2.22;;;7.50;16.10;;;;;;5062436;28;20391;-63
2022/04/02 12:12:53;;;;;;;2.67;1.77;;;7.50;16.00;;;;;;5056230;28;20399;-62
2022/04/02 12:15:19;;;;;;;5.03;3.17;;;7.70;16.20;;;;;;5050682;28;20021;-62
2022/04/02 12:17:52;;;;;;;5.35;2.47;;;8.00;16.00;;;;;;5052434;28;20052;-63
2022/04/02 12:20:27;;;;;;;4.05;2.50;;;8.00;15.80;;;;;;5057296;28;20492;-64
2022/04/02 12:23:10;;;;;;;4.60;3.05;;;8.30;15.60;;;;;;5058988;28;20472;-63
2022/04/02 12:26:16;;;;;;;9.05;3.85;;;8.50;15.70;;;;;;5045073;28;20028;-62
2022/04/02 12:29:41;;;;;;;6.32;3.22;;;8.20;16.40;;;;;;5064823;28;20044;-62
2022/04/02 12:33:14;;;;;;;4.18;2.50;;;7.80;18.10;;;;;;5050952;28;20128;-62
2022/04/02 12:36:47;;;;;;;4.28;2.42;;;7.40;17.40;;;;;;5061674;28;20041;-62
2022/04/02 12:40:12;;;;;;;6.05;1.98;;;6.90;16.70;;;;;;5053227;28;20033;-62
2022/04/02 12:43:44;;;;;;;3.47;2.05;;;6.70;17.60;;;;;;5062474;28;20041;-62
2022/04/02 12:47:10;;;;;;;3.97;2.15;;;6.80;17.50;;;;;;5063353;28;20550;-61
2022/04/02 12:50:34;;;;;;;4.65;2.00;;;7.20;17.00;;;;;;5058316;28;20045;-62
2022/04/02 12:54:09;;;;;;;4.97;1.80;;;7.30;16.70;;;;;;5052137;28;20087;-62
2022/04/02 12:57:34;;;;;;;4.22;2.03;;;7.60;16.20;;;;;;5055298;28;20037;-62
2022/04/02 13:01:12;;;;;;;4.47;2.33;;;7.40;15.30;;;;;;5064414;28;20074;-62
2022/04/02 13:04:47;;;;;;;4.80;2.17;;;7.20;15.90;;;;;;5061645;28;20041;-62
2022/04/02 13:08:12;;;;;;;6.03;2.00;;;7.10;17.10;;;;;;5058076;28;20028;-62
2022/04/02 13:11:37;;;;;;;5.57;2.33;;;6.90;18.50;;;;;;5064637;28;20080;-62
2022/04/02 13:14:35;;;;;;;11.27;2.22;;;6.80;18.80;;;;;;5060383;28;20195;-62
2022/04/02 13:21:26;;;;;;;6.97;2.50;;;6.30;19.50;;;;;;5063502;28;20361;-64
2022/04/02 13:24:57;;;;;;;7.15;2.50;;;6.30;19.60;;;;;;5062933;28;20029;-64
2022/04/02 13:28:23;;;;;;;13.70;4.18;;;6.40;19.00;;;;;;5050438;28;20033;-66
2022/04/02 13:31:48;;;;;;;3.17;1.98;;;6.60;18.50;;;;;;5048649;28;20049;-66
2022/04/02 13:35:26;;;;;;;3.78;1.50;;;6.80;18.10;;;;;;5065486;28;20037;-65
2022/04/02 13:38:37;;;;;;;15.93;7.55;;;6.80;18.30;;;;;;5046918;28;20044;-66
2022/04/02 13:42:03;;;;;;;7.68;4.40;;;6.60;18.00;;;;;;5057650;28;20070;-65
2022/04/02 13:45:28;;;;;;;7.82;2.67;;;6.40;18.30;;;;;;5048728;28;20066;-65
2022/04/02 13:48:56;;;;;;;4.00;2.72;;;6.30;18.70;;;;;;5050395;28;20655;-66
2022/04/02 13:52:25;;;;;;;6.78;2.42;;;6.40;19.30;;;;;;5066443;28;20041;-65
2022/04/02 13:55:30;;;;;;;;;;;6.50;18.80;;;;;;5055614;28;20037;-66
2022/04/02 13:58:55;;;;;;;5.15;2.08;;;6.50;18.80;;;;;;5066444;28;19914;-66
2022/04/02 14:02:21;;;;;;;5.00;1.98;;;6.60;18.80;;;;;;5068887;28;20054;-65
2022/04/02 14:06:04;;;;;;;7.38;2.28;;;6.70;18.80;;;;;;5054768;28;20496;-66
2022/04/02 14:09:30;;;;;;;2.83;2.33;;;6.80;19.20;;;;;;5066577;28;20036;-66
2022/04/02 14:12:55;;;;;;;2.65;2.00;;;6.90;18.80;;;;;;5057512;28;20045;-66
2022/04/02 14:16:36;;;;;;;11.30;2.63;;;6.80;18.30;;;;;;5042450;28;20029;-65
2022/04/02 14:20:04;;;;;;;4.22;2.20;;;6.70;18.40;;;;;;5064248;28;20037;-65
2022/04/02 14:23:28;;;;;;;3.58;2.10;;;6.50;19.40;;;;;;5053098;28;20045;-65
2022/04/02 14:26:51;;;;;;;7.25;2.40;;;6.40;19.70;;;;;;5057664;28;20350;-65
2022/04/02 14:30:24;;;;;;;5.13;1.88;;;6.30;20.20;;;;;;5049686;28;20170;-65
2022/04/02 14:33:16;;;;;;;3.20;1.50;;;6.10;21.00;;;;;;5065800;28;20148;-65
2022/04/02 14:36:35;;;;;;;2.42;1.55;;;6.00;21.20;;;;;;5066147;28;20079;-66
2022/04/02 14:39:56;;;;;;;4.25;1.65;;;5.90;21.90;;;;;;5049701;28;20500;-65
2022/04/02 14:42:48;;;;;;;4.72;1.60;;;5.70;22.80;;;;;;5051394;28;20041;-65
2022/04/02 14:45:57;;;;;;;5.45;2.15;;;5.70;23.30;;;;;;5049325;28;20683;-65
2022/04/02 14:49:28;;;;;;;6.25;1.98;;;5.60;23.60;;;;;;5065604;28;20047;-65
2022/04/02 14:52:58;;;;;;;5.18;0.95;;;5.50;24.40;;;;;;5061137;28;20056;-65
2022/04/02 14:56:31;;;;;;;5.57;1.50;;;5.50;25.00;;;;;;5048982;28;20036;-65
2022/04/02 14:59:42;;;;;;;3.67;1.80;;;5.30;26.80;;;;;;5049876;28;20036;-66
2022/04/02 15:03:09;;;;;;;5.70;1.75;;;5.00;28.00;;;;;;5051235;28;20112;-66
2022/04/02 15:06:02;;;;;;;4.87;1.60;;;4.90;28.50;;;;;;5025128;28;20723;-65
2022/04/02 15:09:11;;;;;;;3.50;1.50;;;4.70;30.80;;;;;;5049207;28;20272;-65
2022/04/02 15:11:56;;;;;;;10.20;1.60;;;4.70;29.80;;;;;;5050800;28;20108;-66
2022/04/02 15:14:27;;;;;;;4.60;1.55;;;4.70;29.70;;;;;;5067217;28;20082;-66
2022/04/02 15:16:53;;;;;;;5.03;1.58;;;4.70;29.60;;;;;;5042167;28;20024;-66
2022/04/02 15:19:23;;;;;;;3.65;1.63;;;4.80;29.40;;;;;;5051029;28;20404;-67